createdAt,value
2023-05-24T00:02:10.244Z,3.20
2023-05-24T00:07:31.375Z,3.38
2023-05-24T00:12:52.192Z,3.95
2023-05-24T00:18:14.503Z,4.18
2023-05-24T00:23:35.605Z,3.58
2023-05-24T00:28:56.199Z,3.88
2023-05-24T00:34:18.740Z,4.65
2023-05-24T00:39:39.796Z,3.85
2023-05-24T00:45:00.720Z,3.45
2023-05-24T00:50:23.306Z,3.33
2023-05-24T00:55:44.159Z,3.20
2023-05-24T01:01:05.132Z,3.50
2023-05-24T01:06:28.459Z,3.65
2023-05-24T01:12:00.056Z,3.30
2023-05-24T01:17:27.413Z,3.70
2023-05-24T01:23:15.186Z,3.75
2023-05-24T01:28:40.778Z,3.42
2023-05-24T01:34:01.666Z,3.17
2023-05-24T01:39:24.420Z,3.00
2023-05-24T01:44:56.006Z,3.17
2023-05-24T01:50:39.680Z,3.33
2023-05-24T01:56:05.429Z,3.17
2023-05-24T02:01:28.778Z,3.80
2023-05-24T02:06:49.829Z,3.15
2023-05-24T02:12:11.794Z,3.67
2023-05-24T02:17:34.006Z,3.25
2023-05-24T02:22:55.015Z,3.05
2023-05-24T02:28:15.777Z,2.85
2023-05-24T02:33:37.981Z,3.10
2023-05-24T02:38:59.106Z,3.42
2023-05-24T02:44:19.832Z,2.67
2023-05-24T02:49:42.321Z,3.22
2023-05-24T02:55:03.182Z,3.55
2023-05-24T03:00:24.175Z,3.20
2023-05-24T03:05:46.384Z,3.00
2023-05-24T03:11:07.515Z,2.70
2023-05-24T03:16:28.303Z,2.88
2023-05-24T03:21:50.559Z,3.20
2023-05-24T03:27:11.799Z,2.83
2023-05-24T03:32:32.463Z,2.53
2023-05-24T03:37:55.004Z,3.28
2023-05-24T03:43:16.237Z,3.03
2023-05-24T03:48:36.854Z,2.90
2023-05-24T03:53:59.329Z,2.95
2023-05-24T03:59:19.889Z,3.17
2023-05-24T04:04:40.708Z,3.50
2023-05-24T04:10:03.356Z,3.33
2023-05-24T04:15:24.471Z,3.15
2023-05-24T04:20:45.353Z,3.42
2023-05-24T04:26:08.024Z,3.53
2023-05-24T04:31:28.770Z,2.95
2023-05-24T04:36:49.655Z,2.90
2023-05-24T04:42:11.989Z,3.17
2023-05-24T04:47:32.750Z,3.30
2023-05-24T04:52:53.527Z,3.38
2023-05-24T04:58:15.926Z,3.10
2023-05-24T05:03:36.860Z,3.47
2023-05-24T05:08:57.569Z,3.53
2023-05-24T05:14:19.672Z,3.47
2023-05-24T05:19:40.701Z,3.42
2023-05-24T05:25:01.819Z,3.28
2023-05-24T05:30:24.226Z,3.45
2023-05-24T05:35:45.270Z,3.80
2023-05-24T05:41:06.256Z,3.83
2023-05-24T05:46:28.581Z,4.13
2023-05-24T05:51:49.679Z,5.50
2023-05-24T05:57:10.735Z,9.70
2023-05-24T06:02:33.287Z,4.65
2023-05-24T06:07:54.309Z,3.72
2023-05-24T06:13:15.193Z,3.40
2023-05-24T06:18:37.284Z,3.95
2023-05-24T06:23:57.857Z,3.10
2023-05-24T06:29:19.433Z,2.97
2023-05-24T06:34:42.023Z,2.67
2023-05-24T06:40:03.090Z,3.25
2023-05-24T06:45:24.035Z,3.40
2023-05-24T06:50:46.841Z,2.47
2023-05-24T06:56:08.177Z,3.28
2023-05-24T07:01:30.121Z,3.42
2023-05-24T07:06:52.845Z,11.10
2023-05-24T07:12:13.993Z,8.40
2023-05-24T07:17:34.652Z,5.18
2023-05-24T07:22:57.020Z,3.80
2023-05-24T07:28:18.531Z,3.05
2023-05-24T07:33:39.613Z,2.70
2023-05-24T07:39:02.370Z,2.22
2023-05-24T07:44:23.838Z,2.72
2023-05-24T07:49:45.012Z,3.00
2023-05-24T07:55:08.447Z,2.90
2023-05-24T08:00:29.222Z,2.72
2023-05-24T08:05:50.202Z,2.35
2023-05-24T08:11:12.359Z,3.15
2023-05-24T08:16:33.218Z,2.67
2023-05-24T08:21:56.100Z,2.70
2023-05-24T08:27:18.436Z,2.05
2023-05-24T08:32:39.574Z,2.53
2023-05-24T08:38:00.344Z,8.15
2023-05-24T08:43:23.762Z,5.18
2023-05-24T08:48:46.742Z,3.15
2023-05-24T08:54:09.236Z,3.50
2023-05-24T08:59:31.908Z,2.85
2023-05-24T09:04:53.910Z,2.75
2023-05-24T09:10:15.255Z,3.42
2023-05-24T09:15:38.011Z,2.58
2023-05-24T09:20:59.090Z,2.45
2023-05-24T09:26:21.329Z,2.15
2023-05-24T09:31:43.484Z,2.55
2023-05-24T09:37:05.365Z,2.20
2023-05-24T09:42:27.235Z,2.40
2023-05-24T09:47:49.938Z,2.88
2023-05-24T09:53:11.698Z,2.95
2023-05-24T09:58:32.928Z,2.20
2023-05-24T10:03:56.711Z,2.35
2023-05-24T10:09:18.102Z,2.55
2023-05-24T10:14:39.646Z,2.55
2023-05-24T10:20:01.918Z,2.20
2023-05-24T10:25:24.196Z,2.22
2023-05-24T10:30:58.300Z,2.13
2023-05-24T10:36:21.277Z,2.20
2023-05-24T10:41:42.343Z,2.55
2023-05-24T10:47:10.788Z,2.28
2023-05-24T10:52:37.424Z,6.43
2023-05-24T10:57:58.342Z,6.50
2023-05-24T11:03:19.720Z,4.25
2023-05-24T11:08:43.290Z,2.97
2023-05-24T11:14:04.405Z,2.58
2023-05-24T11:19:31.422Z,2.92
2023-05-24T11:24:54.073Z,2.10
2023-05-24T11:30:15.941Z,2.33
2023-05-24T11:35:37.523Z,2.15
2023-05-24T11:41:00.026Z,2.03
2023-05-24T11:46:21.239Z,2.33
2023-05-24T11:51:43.086Z,1.75
2023-05-24T11:57:05.801Z,2.05
2023-05-24T12:02:29.596Z,3.00
2023-05-24T12:08:02.169Z,2.08
2023-05-24T12:13:26.228Z,1.83
2023-05-24T12:19:02.298Z,1.65
2023-05-24T12:24:27.232Z,1.92
2023-05-24T12:29:49.609Z,2.58
2023-05-24T12:35:11.929Z,2.17
2023-05-24T12:40:33.885Z,2.38
2023-05-24T12:45:56.388Z,1.70
2023-05-24T12:51:17.496Z,2.20
2023-05-24T12:56:38.269Z,2.33
2023-05-24T13:02:00.708Z,1.67
2023-05-24T13:07:21.788Z,2.90
2023-05-24T13:12:42.557Z,12.93
2023-05-24T13:18:05.635Z,3.13
2023-05-24T13:23:27.012Z,3.30
2023-05-24T13:29:11.866Z,2.63
2023-05-24T13:34:32.723Z,2.40
2023-05-24T13:39:53.769Z,2.17
2023-05-24T13:45:14.532Z,1.70
2023-05-24T13:50:37.419Z,1.85
2023-05-24T13:55:58.325Z,1.85
2023-05-24T14:01:19.649Z,2.35
2023-05-24T14:06:41.996Z,2.00
2023-05-24T14:12:03.271Z,1.80
2023-05-24T14:17:24.095Z,2.08
2023-05-24T14:22:46.312Z,2.22
2023-05-24T14:28:07.472Z,2.08
2023-05-24T14:33:28.367Z,2.50
2023-05-24T14:38:50.855Z,2.22
2023-05-24T14:44:11.595Z,2.60
2023-05-24T14:49:32.540Z,3.30
2023-05-24T14:54:54.704Z,2.38
2023-05-24T15:00:20.600Z,2.35
2023-05-24T15:05:43.354Z,2.22
2023-05-24T15:11:05.992Z,2.20
2023-05-24T15:16:26.795Z,2.40
2023-05-24T15:21:47.676Z,4.45
2023-05-24T15:27:09.829Z,13.45
2023-05-24T15:32:31.141Z,3.45
2023-05-24T15:37:51.924Z,2.65
2023-05-24T15:43:14.323Z,3.38
2023-05-24T15:48:35.530Z,2.35
2023-05-24T15:53:56.373Z,2.10
2023-05-24T15:59:20.887Z,2.00
2023-05-24T16:04:42.474Z,2.05
2023-05-24T16:10:03.269Z,1.52
2023-05-24T16:15:25.574Z,1.77
2023-05-24T16:20:46.679Z,2.03
2023-05-24T16:26:07.995Z,2.28
2023-05-24T16:31:30.611Z,2.60
2023-05-24T16:36:51.595Z,2.13
2023-05-24T16:42:12.509Z,3.20
2023-05-24T16:47:34.867Z,2.92
2023-05-24T16:52:56.003Z,2.95
2023-05-24T16:58:17.078Z,2.47
2023-05-24T17:03:39.482Z,2.17
2023-05-24T17:09:03.839Z,2.28
2023-05-24T17:14:26.134Z,2.10
2023-05-24T17:19:48.524Z,4.78
2023-05-24T17:25:09.692Z,2.85
2023-05-24T17:30:30.639Z,6.82
2023-05-24T17:35:53.584Z,4.47
2023-05-24T17:41:14.457Z,3.90
2023-05-24T17:46:37.245Z,4.07
2023-05-24T17:52:02.499Z,9.90
2023-05-24T17:57:23.413Z,4.35
2023-05-24T18:02:45.782Z,3.10
2023-05-24T18:08:08.576Z,3.90
2023-05-24T18:13:29.542Z,2.42
2023-05-24T18:18:50.518Z,2.70
2023-05-24T18:24:12.892Z,2.67
2023-05-24T18:29:33.982Z,2.22
2023-05-24T18:34:54.714Z,2.28
2023-05-24T18:40:17.162Z,2.25
2023-05-24T18:45:38.373Z,3.45
2023-05-24T18:50:59.059Z,2.92
2023-05-24T18:56:21.460Z,2.13
2023-05-24T19:01:42.120Z,2.28
2023-05-24T19:07:05.196Z,2.30
2023-05-24T19:12:27.429Z,2.40
2023-05-24T19:17:48.661Z,2.80
2023-05-24T19:23:09.420Z,2.60
2023-05-24T19:28:31.717Z,2.13
2023-05-24T19:34:01.026Z,2.25
2023-05-24T19:39:22.541Z,2.33
2023-05-24T19:44:44.848Z,3.38
2023-05-24T19:50:07.140Z,12.85
2023-05-24T19:55:28.073Z,9.75
2023-05-24T20:00:51.810Z,12.90
2023-05-24T20:06:12.790Z,21.00
2023-05-24T20:11:33.519Z,15.07
2023-05-24T20:16:56.407Z,8.70
2023-05-24T20:22:17.303Z,7.70
2023-05-24T20:27:40.708Z,9.55
2023-05-24T20:33:02.960Z,3.78
2023-05-24T20:38:25.100Z,4.03
2023-05-24T20:43:46.010Z,3.72
2023-05-24T20:49:08.630Z,4.22
2023-05-24T20:54:29.946Z,3.80
2023-05-24T20:59:50.798Z,3.90
2023-05-24T21:05:13.215Z,2.92
2023-05-24T21:10:34.057Z,3.35
2023-05-24T21:15:54.856Z,3.00
2023-05-24T21:21:16.976Z,5.25
2023-05-24T21:26:38.112Z,9.10
2023-05-24T21:31:58.794Z,5.28
2023-05-24T21:37:21.062Z,3.70
2023-05-24T21:42:42.148Z,5.53
2023-05-24T21:48:02.812Z,4.25
2023-05-24T21:53:25.173Z,3.78
2023-05-24T21:58:46.162Z,4.50
2023-05-24T22:04:07.067Z,3.63
2023-05-24T22:09:29.026Z,2.85
2023-05-24T22:14:50.120Z,3.60
2023-05-24T22:20:12.018Z,3.20
2023-05-24T22:25:34.549Z,3.75
2023-05-24T22:30:55.475Z,3.20
2023-05-24T22:36:16.517Z,3.10
2023-05-24T22:41:38.916Z,3.00
2023-05-24T22:46:59.856Z,2.90
2023-05-24T22:52:20.913Z,3.22
2023-05-24T22:57:43.230Z,3.30
2023-05-24T23:03:04.241Z,3.33
2023-05-24T23:08:25.074Z,3.55
2023-05-24T23:13:47.420Z,3.17
2023-05-24T23:19:07.935Z,3.60
2023-05-24T23:24:28.737Z,3.58
2023-05-24T23:29:50.926Z,3.45
2023-05-24T23:35:12.067Z,3.40
2023-05-24T23:40:33.341Z,4.05
2023-05-24T23:45:55.636Z,4.10
2023-05-24T23:51:16.578Z,4.05
2023-05-24T23:56:38.152Z,4.38
